| time (UTC) | temp F | wind direction | speed MPH | gust MPH | rain 1hr in | rain 24hr in | rain mn in | humidity % | barometer mb |
| 20260509002502 | 56 | 220 | 2.0 | 4.0 | 0.00 | 0.00 | 0.00 | 65 | 1005.8 |
| 20260509001959 | 57 | 217 | 2.0 | 2.0 | 0.00 | 0.00 | 0.00 | 64 | 1005.8 |
| 20260509001455 | 57 | 206 | 1.0 | 2.0 | 0.00 | 0.00 | 0.00 | 63 | 1005.4 |
| 20260509000952 | 57 | 237 | 1.0 | 2.0 | 0.00 | 0.00 | 0.00 | 61 | 1005.8 |
| 20260509000451 | 58 | 191 | 2.0 | 4.0 | 0.00 | 0.00 | 0.00 | 59 | 1005.8 |
| 20260508235946 | 58 | 261 | 1.0 | 2.0 | 0.00 | 0.00 | 0.00 | 58 | 1005.8 |
| 20260508235444 | 58 | 212 | 4.0 | 7.0 | 0.00 | 0.00 | 0.00 | 56 | 1005.4 |
| 20260508234940 | 59 | 259 | 4.0 | 10.0 | 0.00 | 0.00 | 0.00 | 55 | 1005.8 |
| 20260508234437 | 59 | 233 | 6.0 | 11.0 | 0.00 | 0.00 | 0.00 | 54 | 1005.8 |
| 20260508233935 | 60 | 240 | 2.0 | 6.0 | 0.00 | 0.00 | 0.00 | 52 | 1005.8 |
| 20260508233434 | 60 | 247 | 2.0 | 3.0 | 0.00 | 0.00 | 0.00 | 51 | 1005.4 |
| 20260508232930 | 60 | 223 | 2.0 | 4.0 | 0.00 | 0.00 | 0.00 | 50 | 1005.8 |
| 20260508232427 | 60 | 232 | 2.0 | 3.0 | 0.00 | 0.00 | 0.00 | 51 | 1005.8 |
| 20260508231925 | 59 | 250 | 3.0 | 6.0 | 0.00 | 0.00 | 0.00 | 52 | 1005.8 |
| 20260508231422 | 60 | 239 | 2.0 | 2.0 | 0.00 | 0.00 | 0.00 | 51 | 1005.8 |
| 20260508230919 | 59 | 217 | 2.0 | 4.0 | 0.00 | 0.00 | 0.00 | 51 | 1005.4 |
| 20260508230415 | 60 | 195 | 4.0 | 8.0 | 0.00 | 0.00 | 0.00 | 49 | 1005.8 |
| 20260508225912 | 61 | 248 | 2.0 | 6.0 | 0.00 | 0.00 | 0.00 | 47 | 1005.4 |
| 20260508225409 | 61 | 222 | 3.0 | 6.0 | 0.00 | 0.00 | 0.00 | 44 | 1005.8 |
| 20260508224907 | 61 | 234 | 3.0 | 4.0 | 0.00 | 0.00 | 0.00 | 45 | 1005.8 |
| 20260508224404 | 61 | 224 | 3.0 | 4.0 | 0.00 | 0.00 | 0.00 | 44 | 1005.8 |
| 20260508223901 | 62 | 172 | 2.0 | 4.0 | 0.00 | 0.00 | 0.00 | 42 | 1005.8 |
| 20260508223359 | 62 | 236 | 4.0 | 6.0 | 0.00 | 0.00 | 0.00 | 40 | 1005.8 |
| 20260508222856 | 61 | 108 | 3.0 | 6.0 | 0.00 | 0.00 | 0.00 | 40 | 1005.8 |
| 20260508222353 | 61 | 189 | 2.0 | 3.0 | 0.00 | 0.00 | 0.00 | 44 | 1005.8 |
| 20260508221849 | 62 | 197 | 3.0 | 4.0 | 0.00 | 0.00 | 0.00 | 44 | 1005.8 |
| 20260508221345 | 62 | 255 | 1.0 | 6.0 | 0.00 | 0.00 | 0.00 | 42 | 1005.8 |
| 20260508220842 | 61 | 227 | 3.0 | 4.0 | 0.00 | 0.00 | 0.00 | 44 | 1005.8 |
| 20260508220338 | 61 | 239 | 2.0 | 2.0 | 0.00 | 0.00 | 0.00 | 44 | 1005.8 |
| 20260508215835 | 62 | 196 | 4.0 | 8.0 | 0.00 | 0.00 | 0.00 | 42 | 1006.1 |
| 20260508215332 | 61 | 256 | 2.0 | 4.0 | 0.00 | 0.00 | 0.00 | 41 | 1006.1 |
| 20260508214829 | 62 | 183 | 0.0 | 6.0 | 0.00 | 0.00 | 0.00 | 41 | 1006.1 |
| 20260508214326 | 62 | 229 | 3.0 | 4.0 | 0.00 | 0.00 | 0.00 | 33 | 1006.1 |
| 20260508213822 | 62 | 253 | 2.0 | 6.0 | 0.00 | 0.00 | 0.00 | 32 | 1006.1 |
| 20260508213319 | 62 | 278 | 2.0 | 6.0 | 0.00 | 0.00 | 0.00 | 32 | 1006.1 |
| 20260508212815 | 61 | 201 | 4.0 | 8.0 | 0.00 | 0.00 | 0.00 | 32 | 1006.1 |
| 20260508212312 | 62 | 228 | 6.0 | 7.0 | 0.00 | 0.00 | 0.00 | 31 | 1006.1 |
| 20260508211808 | 61 | 230 | 3.0 | 4.0 | 0.00 | 0.00 | 0.00 | 33 | 1006.1 |
| 20260508211303 | 62 | 284 | 2.0 | 7.0 | 0.00 | 0.00 | 0.00 | 32 | 1006.1 |
| 20260508210801 | 62 | 236 | 6.0 | 8.0 | 0.00 | 0.00 | 0.00 | 32 | 1006.1 |
| 20260508210258 | 61 | 245 | 2.0 | 8.0 | 0.00 | 0.00 | 0.00 | 32 | 1006.1 |
| 20260508205755 | 61 | 212 | 2.0 | 3.0 | 0.00 | 0.00 | 0.00 | 39 | 1006.4 |
| 20260508205251 | 61 | 180 | 2.0 | 8.0 | 0.00 | 0.00 | 0.00 | 31 | 1006.1 |
| 20260508204747 | 62 | 203 | 6.0 | 9.0 | 0.00 | 0.00 | 0.00 | 30 | 1006.4 |
| 20260508204244 | 61 | 286 | 0.0 | 4.0 | 0.00 | 0.00 | 0.00 | 29 | 1006.4 |
| 20260508203740 | 61 | 197 | 6.0 | 8.0 | 0.00 | 0.00 | 0.00 | 30 | 1006.4 |
| 20260508203236 | 62 | 88 | 2.0 | 7.0 | 0.00 | 0.00 | 0.00 | 29 | 1006.4 |
| 20260508202732 | 61 | 218 | 2.0 | 7.0 | 0.00 | 0.00 | 0.00 | 29 | 1006.4 |
| 20260508202230 | 61 | 255 | 5.0 | 8.0 | 0.00 | 0.00 | 0.00 | 31 | 1006.4 |
| 20260508201727 | 61 | 269 | 0.0 | 4.0 | 0.00 | 0.00 | 0.00 | 32 | 1006.8 |
| 20260508201223 | 61 | 210 | 2.0 | 8.0 | 0.00 | 0.00 | 0.00 | 30 | 1006.8 |
| 20260508200720 | 61 | 219 | 2.0 | 4.0 | 0.00 | 0.00 | 0.00 | 34 | 1007.1 |
| 20260508200216 | 60 | 166 | 3.0 | 4.0 | 0.00 | 0.00 | 0.00 | 31 | 1007.1 |
| 20260508195713 | 61 | 302 | 1.0 | 4.0 | 0.00 | 0.00 | 0.00 | 26 | 1007.1 |
| 20260508195209 | 61 | 265 | 2.0 | 6.0 | 0.00 | 0.00 | 0.00 | 28 | 1007.5 |
| 20260508194706 | 61 | 242 | 5.0 | 10.0 | 0.00 | 0.00 | 0.00 | 28 | 1007.1 |
| 20260508194203 | 61 | 295 | 3.0 | 6.0 | 0.00 | 0.00 | 0.00 | 32 | 1007.5 |
| 20260508193700 | 60 | 204 | 2.0 | 4.0 | 0.00 | 0.00 | 0.00 | 31 | 1007.5 |
| 20260508193157 | 60 | 138 | 2.0 | 3.0 | 0.00 | 0.00 | 0.00 | 32 | 1007.5 |
| 20260508192653 | 60 | 264 | 1.0 | 1.0 | 0.00 | 0.00 | 0.00 | 31 | 1007.5 |
| 20260508192151 | 60 | 305 | 2.0 | 4.0 | 0.00 | 0.00 | 0.00 | 33 | 1007.5 |
| 20260508191648 | 61 | 277 | 2.0 | 4.0 | 0.00 | 0.00 | 0.00 | 31 | 1007.5 |
| 20260508191144 | 61 | 252 | 0.0 | 3.0 | 0.00 | 0.00 | 0.00 | 30 | 1007.5 |
| 20260508190641 | 59 | 301 | 0.0 | 2.0 | 0.00 | 0.00 | 0.00 | 34 | 1007.8 |
| 20260508190138 | 60 | 256 | 2.0 | 8.0 | 0.00 | 0.00 | 0.00 | 32 | 1007.8 |
| 20260508185635 | 60 | 219 | 4.0 | 9.0 | 0.00 | 0.00 | 0.00 | 33 | 1007.8 |
| 20260508185132 | 59 | 258 | 5.0 | 6.0 | 0.00 | 0.00 | 0.00 | 32 | 1008.1 |
| 20260508184629 | 59 | 199 | 2.0 | 6.0 | 0.00 | 0.00 | 0.00 | 30 | 1008.1 |
| 20260508184126 | 60 | 241 | 0.0 | 2.0 | 0.00 | 0.00 | 0.00 | 34 | 1007.8 |
| 20260508183623 | 60 | 268 | 4.0 | 8.0 | 0.00 | 0.00 | 0.00 | 29 | 1008.1 |
| 20260508183119 | 60 | 281 | 0.0 | 2.0 | 0.00 | 0.00 | 0.00 | 31 | 1008.1 |
| 20260508182615 | 59 | 223 | 3.0 | 4.0 | 0.00 | 0.00 | 0.00 | 29 | 1007.8 |
| 20260508182112 | 59 | 252 | 2.0 | 3.0 | 0.00 | 0.00 | 0.00 | 34 | 1008.1 |
| 20260508181612 | 59 | 184 | 2.0 | 6.0 | 0.00 | 0.00 | 0.00 | 31 | 1008.1 |
| 20260508181111 | 59 | 261 | 2.0 | 3.0 | 0.00 | 0.00 | 0.00 | 36 | 1008.1 |
| 20260508180607 | 60 | 297 | 0.0 | 1.0 | 0.00 | 0.00 | 0.00 | 35 | 1008.5 |
| 20260508180103 | 59 | 313 | 0.0 | 2.0 | 0.00 | 0.00 | 0.00 | 30 | 1008.5 |
| 20260508175600 | 59 | 3 | 1.0 | 2.0 | 0.00 | 0.00 | 0.00 | 32 | 1008.5 |
| 20260508175057 | 58 | 297 | 2.0 | 4.0 | 0.00 | 0.00 | 0.00 | 37 | 1008.5 |
| 20260508174555 | 58 | 299 | 0.0 | 1.0 | 0.00 | 0.00 | 0.00 | 26 | 1008.8 |
| 20260508174051 | 58 | 279 | 2.0 | 3.0 | 0.00 | 0.00 | 0.00 | 32 | 1008.8 |
| 20260508173549 | 58 | 270 | 0.0 | 3.0 | 0.00 | 0.00 | 0.00 | 31 | 1008.8 |
| 20260508173044 | 57 | 255 | 2.0 | 6.0 | 0.00 | 0.00 | 0.00 | 31 | 1008.8 |
| 20260508172542 | 57 | 196 | 4.0 | 6.0 | 0.00 | 0.00 | 0.00 | 29 | 1009.2 |
| 20260508172038 | 58 | 214 | 5.0 | 9.0 | 0.00 | 0.00 | 0.00 | 27 | 1009.5 |
| 20260508171535 | 57 | 266 | 5.0 | 9.0 | 0.00 | 0.00 | 0.00 | 30 | 1009.2 |
| 20260508171031 | 59 | 286 | 5.0 | 8.0 | 0.00 | 0.00 | 0.00 | 27 | 1009.2 |
| 20260508170529 | 58 | 303 | 1.0 | 6.0 | 0.00 | 0.00 | 0.00 | 30 | 1009.2 |
| 20260508170026 | 58 | 295 | 6.0 | 10.0 | 0.00 | 0.00 | 0.00 | 29 | 1009.5 |
| 20260508165523 | 56 | 277 | 4.0 | 6.0 | 0.00 | 0.00 | 0.00 | 29 | 1009.5 |
| 20260508165020 | 56 | 260 | 2.0 | 3.0 | 0.00 | 0.00 | 0.00 | 31 | 1009.5 |
| 20260508164516 | 58 | 232 | 2.0 | 4.0 | 0.00 | 0.00 | 0.00 | 28 | 1009.5 |
| 20260508164013 | 58 | 300 | 1.0 | 7.0 | 0.00 | 0.00 | 0.00 | 30 | 1009.5 |
| 20260508163511 | 57 | 292 | 1.0 | 4.0 | 0.00 | 0.00 | 0.00 | 31 | 1009.5 |
| 20260508163007 | 57 | 197 | 2.0 | 6.0 | 0.00 | 0.00 | 0.00 | 32 | 1009.8 |
| 20260508162504 | 57 | 291 | 1.0 | 10.0 | 0.00 | 0.00 | 0.00 | 35 | 1009.5 |
| 20260508162001 | 57 | 24 | 3.0 | 8.0 | 0.00 | 0.00 | 0.00 | 23 | 1009.8 |
| 20260508161458 | 56 | 257 | 2.0 | 6.0 | 0.00 | 0.00 | 0.00 | 25 | 1009.5 |
| 20260508160955 | 56 | 232 | 2.0 | 3.0 | 0.00 | 0.00 | 0.00 | 25 | 1009.8 |
| 20260508160454 | 56 | 337 | 1.0 | 4.0 | 0.00 | 0.00 | 0.00 | 29 | 1009.5 |
| 20260508155949 | 58 | 244 | 2.0 | 6.0 | 0.00 | 0.00 | 0.00 | 32 | 1009.8 |
| 20260508155447 | 57 | 251 | 1.0 | 4.0 | 0.00 | 0.00 | 0.00 | 31 | 1009.8 |
| 20260508154944 | 56 | 263 | 1.0 | 3.0 | 0.00 | 0.00 | 0.00 | 27 | 1009.8 |
| 20260508154442 | 56 | 298 | 2.0 | 3.0 | 0.00 | 0.00 | 0.00 | 31 | 1009.8 |
| 20260508153938 | 56 | 213 | 4.0 | 4.0 | 0.00 | 0.00 | 0.00 | 33 | 1009.8 |
| 20260508153435 | 56 | 297 | 2.0 | 7.0 | 0.00 | 0.00 | 0.00 | 31 | 1009.8 |
| 20260508152931 | 56 | 234 | 1.0 | 3.0 | 0.00 | 0.00 | 0.00 | 30 | 1009.8 |
| 20260508152428 | 56 | 274 | 2.0 | 7.0 | 0.00 | 0.00 | 0.00 | 33 | 1009.8 |
| 20260508151924 | 57 | 356 | 3.0 | 3.0 | 0.00 | 0.00 | 0.00 | 30 | 1009.8 |
| 20260508151421 | 56 | 307 | 2.0 | 4.0 | 0.00 | 0.00 | 0.00 | 32 | 1010.2 |
| 20260508150917 | 55 | 287 | 0.0 | 2.0 | 0.00 | 0.00 | 0.00 | 33 | 1010.2 |
| 20260508150414 | 56 | 328 | 1.0 | 2.0 | 0.00 | 0.00 | 0.00 | 37 | 1010.2 |
| 20260508145910 | 55 | 298 | 1.0 | 9.0 | 0.00 | 0.00 | 0.00 | 38 | 1010.2 |
| 20260508145407 | 55 | 306 | 2.0 | 3.0 | 0.00 | 0.00 | 0.00 | 37 | 1010.2 |
| 20260508144904 | 55 | 285 | 2.0 | 6.0 | 0.00 | 0.00 | 0.00 | 37 | 1010.2 |
| 20260508144401 | 55 | 309 | 2.0 | 4.0 | 0.00 | 0.00 | 0.00 | 38 | 1010.2 |
| 20260508143859 | 55 | 319 | 1.0 | 3.0 | 0.00 | 0.00 | 0.00 | 39 | 1010.2 |
| 20260508143356 | 53 | 274 | 3.0 | 6.0 | 0.00 | 0.00 | 0.00 | 39 | 1010.2 |
| 20260508142852 | 55 | 319 | 6.0 | 9.0 | 0.00 | 0.00 | 0.00 | 39 | 1010.2 |
| 20260508142349 | 54 | 307 | 0.0 | 2.0 | 0.00 | 0.00 | 0.00 | 39 | 1010.2 |
| 20260508141845 | 54 | 284 | 1.0 | 4.0 | 0.00 | 0.00 | 0.00 | 40 | 1010.6 |
| 20260508141343 | 54 | 233 | 3.0 | 4.0 | 0.00 | 0.00 | 0.00 | 40 | 1010.6 |
| 20260508140840 | 53 | 279 | 0.0 | 1.0 | 0.00 | 0.00 | 0.00 | 43 | 1010.6 |
| 20260508140337 | 54 | 281 | 4.0 | 6.0 | 0.00 | 0.00 | 0.00 | 42 | 1010.6 |
| 20260508135833 | 54 | 332 | 0.0 | 1.0 | 0.00 | 0.00 | 0.00 | 45 | 1010.6 |
| 20260508135329 | 53 | 257 | 1.0 | 2.0 | 0.00 | 0.00 | 0.00 | 46 | 1010.6 |
| 20260508134825 | 53 | 316 | 0.0 | 8.0 | 0.00 | 0.00 | 0.00 | 51 | 1010.6 |
| 20260508134322 | 52 | 287 | 1.0 | 7.0 | 0.00 | 0.00 | 0.00 | 46 | 1010.6 |
| 20260508133819 | 52 | 242 | 1.0 | 4.0 | 0.00 | 0.00 | 0.00 | 47 | 1010.6 |
| 20260508133317 | 51 | 299 | 0.0 | 1.0 | 0.00 | 0.00 | 0.00 | 51 | 1010.6 |
| 20260508132814 | 51 | 262 | 2.0 | 3.0 | 0.00 | 0.00 | 0.00 | 51 | 1010.6 |
| 20260508132312 | 51 | 300 | 1.0 | 3.0 | 0.00 | 0.00 | 0.00 | 51 | 1010.6 |
| 20260508131808 | 51 | 283 | 2.0 | 3.0 | 0.00 | 0.00 | 0.00 | 50 | 1010.6 |
| 20260508131303 | 50 | 300 | 2.0 | 3.0 | 0.00 | 0.00 | 0.00 | 52 | 1010.6 |
| 20260508130755 | 50 | 277 | 0.0 | 2.0 | 0.00 | 0.00 | 0.00 | 54 | 1010.6 |
| 20260508130252 | 50 | 295 | 2.0 | 6.0 | 0.00 | 0.00 | 0.00 | 54 | 1010.6 |
| 20260508125748 | 50 | 230 | 3.0 | 3.0 | 0.00 | 0.00 | 0.00 | 54 | 1010.6 |
| 20260508125244 | 50 | 266 | 1.0 | 2.0 | 0.00 | 0.00 | 0.00 | 57 | 1010.6 |
| 20260508124743 | 50 | 243 | 1.0 | 2.0 | 0.00 | 0.00 | 0.00 | 58 | 1010.2 |
| 20260508124239 | 48 | 283 | 0.0 | 1.0 | 0.00 | 0.00 | 0.00 | 64 | 1010.2 |
| 20260508123738 | 47 | 291 | 0.0 | 1.0 | 0.00 | 0.00 | 0.00 | 67 | 1010.2 |
| 20260508123235 | 47 | 295 | 1.0 | 1.0 | 0.00 | 0.00 | 0.00 | 67 | 1010.2 |
| 20260508122731 | 48 | 294 | 0.0 | 1.0 | 0.00 | 0.00 | 0.00 | 68 | 1010.2 |
| 20260508122228 | 47 | 279 | 0.0 | 0.0 | 0.00 | 0.00 | 0.00 | 70 | 1010.2 |
| 20260508121726 | 47 | 282 | 0.0 | 0.0 | 0.00 | 0.00 | 0.00 | 73 | 1010.2 |
| 20260508121224 | 45 | 291 | 0.0 | 0.0 | 0.00 | 0.00 | 0.00 | 74 | 1010.2 |
| 20260508120721 | 44 | 287 | 0.0 | 0.0 | 0.00 | 0.00 | 0.00 | 77 | 1010.2 |
| 20260508120219 | 44 | 287 | 0.0 | 0.0 | 0.00 | 0.00 | 0.00 | 77 | 1009.8 |
| 20260508115716 | 44 | 269 | 0.0 | 1.0 | 0.00 | 0.00 | 0.00 | 79 | 1010.2 |
| 20260508115214 | 43 | 286 | 0.0 | 0.0 | 0.00 | 0.00 | 0.00 | 82 | 1009.8 |
| 20260508114710 | 41 | 288 | 0.0 | 0.0 | 0.00 | 0.00 | 0.00 | 82 | 1009.8 |
| 20260508114207 | 41 | 290 | 0.0 | 0.0 | 0.00 | 0.00 | 0.00 | 82 | 1009.8 |
| 20260508113704 | 41 | 276 | 0.0 | 0.0 | 0.00 | 0.00 | 0.00 | 83 | 1009.8 |
| 20260508113202 | 40 | 291 | 0.0 | 0.0 | 0.00 | 0.00 | 0.00 | 85 | 1009.8 |
| 20260508112658 | 39 | 291 | 0.0 | 0.0 | 0.00 | 0.00 | 0.00 | 84 | 1009.8 |
| 20260508112155 | 39 | 299 | 0.0 | 0.0 | 0.00 | 0.00 | 0.00 | 85 | 1009.8 |
| 20260508111652 | 39 | 299 | 0.0 | 0.0 | 0.00 | 0.00 | 0.00 | 85 | 1009.8 |
| 20260508111149 | 39 | 299 | 0.0 | 0.0 | 0.00 | 0.00 | 0.00 | 85 | 1009.8 |
| 20260508110646 | 39 | 300 | 0.0 | 0.0 | 0.00 | 0.00 | 0.00 | 85 | 1009.8 |
| 20260508110143 | 37 | 301 | 0.0 | 0.0 | 0.00 | 0.00 | 0.00 | 85 | 1009.8 |
| 20260508105637 | 37 | 301 | 0.0 | 0.0 | 0.00 | 0.00 | 0.00 | 86 | 1009.8 |
| 20260508105134 | 36 | 302 | 0.0 | 0.0 | 0.00 | 0.00 | 0.00 | 86 | 1009.8 |
| 20260508104627 | 36 | 302 | 0.0 | 0.0 | 0.00 | 0.00 | 0.00 | 86 | 1009.8 |
| 20260508104123 | 35 | 302 | 0.0 | 0.0 | 0.00 | 0.00 | 0.00 | 85 | 1009.8 |
| 20260508103621 | 35 | 302 | 0.0 | 0.0 | 0.00 | 0.00 | 0.00 | 85 | 1009.8 |
| 20260508103118 | 35 | 302 | 0.0 | 0.0 | 0.00 | 0.00 | 0.00 | 85 | 1009.5 |
| 20260508102615 | 35 | 302 | 0.0 | 0.0 | 0.00 | 0.00 | 0.00 | 85 | 1009.8 |
| 20260508102113 | 35 | 302 | 0.0 | 0.0 | 0.00 | 0.00 | 0.00 | 85 | 1009.8 |
| 20260508101610 | 35 | 302 | 0.0 | 0.0 | 0.00 | 0.00 | 0.00 | 85 | 1009.8 |
| 20260508101107 | 36 | 302 | 0.0 | 0.0 | 0.00 | 0.00 | 0.00 | 85 | 1009.8 |
| 20260508100605 | 36 | 302 | 0.0 | 0.0 | 0.00 | 0.00 | 0.00 | 85 | 1009.8 |
| 20260508095558 | 36 | 302 | 0.0 | 0.0 | 0.00 | 0.00 | 0.00 | 85 | 1009.8 |
| 20260508095055 | 36 | 303 | 0.0 | 0.0 | 0.00 | 0.00 | 0.00 | 85 | 1010.2 |
| 20260508094553 | 37 | 303 | 0.0 | 0.0 | 0.00 | 0.00 | 0.00 | 84 | 1009.8 |
| 20260508094049 | 37 | 291 | 0.0 | 0.0 | 0.00 | 0.00 | 0.00 | 84 | 1009.8 |
| 20260508093547 | 37 | 268 | 0.0 | 0.0 | 0.00 | 0.00 | 0.00 | 84 | 1009.8 |
| 20260508093044 | 37 | 287 | 0.0 | 0.0 | 0.00 | 0.00 | 0.00 | 84 | 1009.8 |
| 20260508092541 | 37 | 282 | 0.0 | 0.0 | 0.00 | 0.00 | 0.00 | 84 | 1009.8 |
| 20260508092040 | 37 | 307 | 0.0 | 0.0 | 0.00 | 0.00 | 0.00 | 84 | 1009.8 |
| 20260508091537 | 38 | 308 | 0.0 | 0.0 | 0.00 | 0.00 | 0.00 | 84 | 1009.8 |
| 20260508091033 | 38 | 308 | 0.0 | 0.0 | 0.00 | 0.00 | 0.00 | 84 | 1010.2 |
| 20260508090532 | 39 | 11 | 1.0 | 1.0 | 0.00 | 0.00 | 0.00 | 83 | 1010.2 |
| 20260508090028 | 39 | 287 | 0.0 | 1.0 | 0.00 | 0.00 | 0.00 | 83 | 1009.8 |
| 20260508085525 | 39 | 341 | 1.0 | 2.0 | 0.00 | 0.00 | 0.00 | 83 | 1010.2 |
| 20260508085022 | 39 | 293 | 0.0 | 0.0 | 0.00 | 0.00 | 0.00 | 83 | 1010.2 |
| 20260508084519 | 40 | 320 | 0.0 | 1.0 | 0.00 | 0.00 | 0.00 | 83 | 1010.2 |
| 20260508084016 | 40 | 271 | 0.0 | 1.0 | 0.00 | 0.00 | 0.00 | 83 | 1009.8 |
| 20260508083513 | 40 | 271 | 0.0 | 0.0 | 0.00 | 0.00 | 0.00 | 83 | 1009.8 |
| 20260508083009 | 40 | 251 | 0.0 | 0.0 | 0.00 | 0.00 | 0.00 | 83 | 1009.8 |
| 20260508082505 | 40 | 250 | 0.0 | 2.0 | 0.00 | 0.00 | 0.00 | 83 | 1009.8 |
| 20260508082003 | 40 | 307 | 0.0 | 1.0 | 0.00 | 0.00 | 0.00 | 83 | 1010.6 |
| 20260508081500 | 39 | 304 | 0.0 | 0.0 | 0.00 | 0.00 | 0.00 | 82 | 1010.2 |
| 20260508080956 | 39 | 295 | 0.0 | 0.0 | 0.00 | 0.00 | 0.00 | 82 | 1010.2 |
| 20260508080454 | 39 | 296 | 0.0 | 0.0 | 0.00 | 0.00 | 0.00 | 82 | 1009.8 |
| 20260508075950 | 40 | 277 | 0.0 | 0.0 | 0.00 | 0.00 | 0.00 | 82 | 1009.8 |
| 20260508075442 | 40 | 305 | 0.0 | 0.0 | 0.00 | 0.00 | 0.00 | 81 | 1009.8 |
| 20260508074940 | 40 | 313 | 0.0 | 1.0 | 0.00 | 0.00 | 0.00 | 81 | 1009.8 |
| 20260508074437 | 40 | 356 | 0.0 | 1.0 | 0.00 | 0.00 | 0.00 | 80 | 1009.5 |
| 20260508073934 | 41 | 16 | 1.0 | 1.0 | 0.00 | 0.00 | 0.00 | 81 | 1009.8 |
| 20260508073431 | 40 | 254 | 0.0 | 0.0 | 0.00 | 0.00 | 0.00 | 80 | 1009.8 |
| 20260508072928 | 40 | 223 | 2.0 | 3.0 | 0.00 | 0.00 | 0.00 | 79 | 1009.8 |
| 20260508072424 | 40 | 355 | 0.0 | 1.0 | 0.00 | 0.00 | 0.00 | 78 | 1009.8 |
| 20260508071922 | 40 | 319 | 0.0 | 0.0 | 0.00 | 0.00 | 0.00 | 80 | 1010.2 |
| 20260508071419 | 40 | 324 | 0.0 | 1.0 | 0.00 | 0.00 | 0.00 | 80 | 1010.2 |
| 20260508070916 | 40 | 318 | 0.0 | 0.0 | 0.00 | 0.00 | 0.00 | 80 | 1010.2 |
| 20260508070414 | 40 | 309 | 0.0 | 0.0 | 0.00 | 0.00 | 0.00 | 80 | 1010.6 |
| 20260508065912 | 40 | 302 | 0.0 | 0.0 | 0.00 | 0.00 | 0.00 | 80 | 1010.6 |
| 20260508065410 | 40 | 324 | 0.0 | 1.0 | 0.00 | 0.00 | 0.00 | 79 | 1010.2 |
| 20260508064908 | 40 | 320 | 0.0 | 0.0 | 0.00 | 0.00 | 0.00 | 79 | 1010.2 |
| 20260508064404 | 40 | 322 | 0.0 | 0.0 | 0.00 | 0.00 | 0.00 | 79 | 1010.2 |
| 20260508063902 | 40 | 275 | 0.0 | 0.0 | 0.00 | 0.00 | 0.00 | 79 | 1010.2 |
| 20260508063400 | 40 | 294 | 0.0 | 0.0 | 0.00 | 0.00 | 0.00 | 79 | 1010.6 |
| 20260508062857 | 40 | 293 | 0.0 | 0.0 | 0.00 | 0.00 | 0.00 | 78 | 1010.6 |
| 20260508062354 | 40 | 293 | 0.0 | 0.0 | 0.00 | 0.00 | 0.00 | 78 | 1010.6 |
| 20260508061851 | 39 | 292 | 0.0 | 0.0 | 0.00 | 0.00 | 0.00 | 77 | 1010.2 |
| 20260508061343 | 39 | 298 | 0.0 | 0.0 | 0.00 | 0.00 | 0.00 | 78 | 1010.6 |
| 20260508060839 | 40 | 330 | 0.0 | 1.0 | 0.00 | 0.00 | 0.00 | 78 | 1010.2 |
| 20260508060337 | 41 | 346 | 0.0 | 1.0 | 0.00 | 0.00 | 0.00 | 77 | 1010.2 |
| 20260508055832 | 40 | 52 | 1.0 | 2.0 | 0.00 | 0.00 | 0.00 | 78 | 1010.2 |
| 20260508055330 | 39 | 354 | 2.0 | 3.0 | 0.00 | 0.00 | 0.00 | 79 | 1010.6 |
| 20260508054826 | 39 | 307 | 0.0 | 0.0 | 0.00 | 0.00 | 0.00 | 79 | 1010.6 |
| 20260508054324 | 39 | 303 | 0.0 | 0.0 | 0.00 | 0.00 | 0.00 | 79 | 1010.6 |
| 20260508053821 | 39 | 303 | 0.0 | 0.0 | 0.00 | 0.00 | 0.00 | 79 | 1010.6 |
| 20260508053318 | 39 | 326 | 0.0 | 0.0 | 0.00 | 0.00 | 0.00 | 78 | 1010.6 |
| 20260508052815 | 40 | 270 | 0.0 | 1.0 | 0.00 | 0.00 | 0.00 | 77 | 1011.0 |
| 20260508052312 | 39 | 303 | 0.0 | 0.0 | 0.00 | 0.00 | 0.00 | 78 | 1011.0 |
| 20260508051808 | 39 | 280 | 0.0 | 0.0 | 0.00 | 0.00 | 0.00 | 76 | 1011.0 |
| 20260508051304 | 39 | 280 | 0.0 | 0.0 | 0.00 | 0.00 | 0.00 | 75 | 1011.0 |
| 20260508050801 | 40 | 280 | 0.0 | 0.0 | 0.00 | 0.00 | 0.00 | 75 | 1011.0 |
| 20260508050258 | 40 | 279 | 0.0 | 0.0 | 0.00 | 0.00 | 0.00 | 75 | 1011.0 |
| 20260508045754 | 41 | 280 | 0.0 | 1.0 | 0.00 | 0.00 | 0.00 | 74 | 1010.6 |
| 20260508045251 | 41 | 322 | 0.0 | 0.0 | 0.00 | 0.00 | 0.00 | 74 | 1011.0 |
| 20260508044749 | 41 | 294 | 0.0 | 0.0 | 0.00 | 0.00 | 0.00 | 74 | 1010.6 |
| 20260508044246 | 41 | 309 | 0.0 | 3.0 | 0.00 | 0.00 | 0.00 | 74 | 1010.6 |
| 20260508043741 | 41 | 282 | 0.0 | 0.0 | 0.00 | 0.00 | 0.00 | 74 | 1010.2 |
| 20260508043239 | 42 | 282 | 0.0 | 0.0 | 0.00 | 0.00 | 0.00 | 74 | 1010.6 |
| 20260508042735 | 42 | 279 | 0.0 | 0.0 | 0.00 | 0.00 | 0.00 | 74 | 1010.6 |
| 20260508042233 | 42 | 279 | 0.0 | 1.0 | 0.00 | 0.00 | 0.00 | 73 | 1010.6 |
| 20260508041729 | 42 | 306 | 0.0 | 0.0 | 0.00 | 0.00 | 0.00 | 72 | 1010.6 |
| 20260508041226 | 42 | 282 | 0.0 | 1.0 | 0.00 | 0.00 | 0.00 | 72 | 1010.2 |
| 20260508040722 | 43 | 289 | 0.0 | 0.0 | 0.00 | 0.00 | 0.00 | 73 | 1010.6 |
| 20260508040219 | 42 | 281 | 0.0 | 0.0 | 0.00 | 0.00 | 0.00 | 71 | 1010.2 |
| 20260508035717 | 43 | 337 | 0.0 | 1.0 | 0.00 | 0.00 | 0.00 | 70 | 1010.2 |
| 20260508035209 | 43 | 268 | 0.0 | 1.0 | 0.00 | 0.00 | 0.00 | 69 | 1010.2 |
| 20260508034705 | 43 | 343 | 0.0 | 1.0 | 0.00 | 0.00 | 0.00 | 70 | 1010.6 |
| 20260508034203 | 43 | 9 | 1.0 | 2.0 | 0.00 | 0.00 | 0.00 | 70 | 1010.6 |
| 20260508033659 | 43 | 272 | 0.0 | 1.0 | 0.00 | 0.00 | 0.00 | 70 | 1010.6 |
| 20260508033158 | 43 | 336 | 0.0 | 3.0 | 0.00 | 0.00 | 0.00 | 69 | 1010.6 |
| 20260508032655 | 43 | 321 | 0.0 | 1.0 | 0.00 | 0.00 | 0.00 | 71 | 1011.0 |
| 20260508032152 | 43 | 295 | 0.0 | 0.0 | 0.00 | 0.00 | 0.00 | 69 | 1010.2 |
| 20260508031649 | 43 | 295 | 0.0 | 0.0 | 0.00 | 0.00 | 0.00 | 70 | 1010.6 |
| 20260508031145 | 43 | 295 | 0.0 | 0.0 | 0.00 | 0.00 | 0.00 | 70 | 1010.6 |
| 20260508030641 | 42 | 295 | 0.0 | 0.0 | 0.00 | 0.00 | 0.00 | 71 | 1010.2 |
| 20260508030139 | 43 | 295 | 0.0 | 0.0 | 0.00 | 0.00 | 0.00 | 71 | 1010.2 |
| 20260508025635 | 43 | 295 | 0.0 | 0.0 | 0.00 | 0.00 | 0.00 | 69 | 1010.6 |
| 20260508025133 | 43 | 295 | 0.0 | 0.0 | 0.00 | 0.00 | 0.00 | 67 | 1010.6 |
| 20260508024628 | 43 | 307 | 0.0 | 0.0 | 0.00 | 0.00 | 0.00 | 65 | 1010.6 |
| 20260508024126 | 43 | 343 | 0.0 | 1.0 | 0.00 | 0.00 | 0.00 | 65 | 1010.6 |
| 20260508023622 | 43 | 354 | 2.0 | 3.0 | 0.00 | 0.00 | 0.00 | 65 | 1010.6 |
| 20260508023120 | 44 | 24 | 1.0 | 4.0 | 0.00 | 0.00 | 0.00 | 65 | 1010.6 |
| 20260508022615 | 43 | 336 | 0.0 | 3.0 | 0.00 | 0.00 | 0.00 | 63 | 1010.6 |
| 20260508022113 | 44 | 334 | 1.0 | 2.0 | 0.00 | 0.00 | 0.00 | 63 | 1010.6 |
| 20260508021608 | 44 | 342 | 0.0 | 2.0 | 0.00 | 0.00 | 0.00 | 64 | 1011.0 |
| 20260508021104 | 44 | 353 | 2.0 | 2.0 | 0.00 | 0.00 | 0.00 | 64 | 1010.6 |
| 20260508020602 | 44 | 12 | 1.0 | 1.0 | 0.00 | 0.00 | 0.00 | 66 | 1010.6 |
| 20260508020059 | 43 | 305 | 0.0 | 0.0 | 0.00 | 0.00 | 0.00 | 65 | 1010.6 |
| 20260508015557 | 43 | 285 | 0.0 | 0.0 | 0.00 | 0.00 | 0.00 | 65 | 1010.6 |
| 20260508015054 | 43 | 286 | 0.0 | 0.0 | 0.00 | 0.00 | 0.00 | 65 | 1010.6 |
| 20260508014550 | 43 | 281 | 0.0 | 0.0 | 0.00 | 0.00 | 0.00 | 66 | 1010.2 |
| 20260508014046 | 43 | 264 | 0.0 | 1.0 | 0.00 | 0.00 | 0.00 | 66 | 1010.2 |
| 20260508013542 | 43 | 268 | 0.0 | 1.0 | 0.00 | 0.00 | 0.00 | 63 | 1009.8 |
| 20260508013039 | 44 | 319 | 0.0 | 0.0 | 0.00 | 0.00 | 0.00 | 64 | 1009.8 |
| 20260508012537 | 44 | 8 | 0.0 | 1.0 | 0.00 | 0.00 | 0.00 | 64 | 1009.8 |
| 20260508012034 | 44 | 254 | 0.0 | 0.0 | 0.00 | 0.00 | 0.00 | 61 | 1009.8 |
| 20260508011533 | 44 | 15 | 0.0 | 2.0 | 0.00 | 0.00 | 0.00 | 61 | 1009.8 |
| 20260508011029 | 45 | 277 | 1.0 | 1.0 | 0.00 | 0.00 | 0.00 | 60 | 1009.8 |
| 20260508010526 | 45 | 332 | 0.0 | 1.0 | 0.00 | 0.00 | 0.00 | 59 | 1009.8 |
| 20260508010024 | 45 | 333 | 0.0 | 0.0 | 0.00 | 0.00 | 0.00 | 57 | 1010.2 |
| 20260508005520 | 45 | 319 | 0.0 | 3.0 | 0.00 | 0.00 | 0.00 | 58 | 1009.8 |
| 20260508005017 | 45 | 4 | 0.0 | 1.0 | 0.00 | 0.00 | 0.00 | 59 | 1009.8 |
| 20260508004513 | 45 | 333 | 0.0 | 1.0 | 0.00 | 0.00 | 0.00 | 57 | 1009.8 |
| 20260508004010 | 45 | 94 | 0.0 | 1.0 | 0.00 | 0.00 | 0.00 | 58 | 1009.5 |
| 20260508003506 | 45 | 32 | 1.0 | 4.0 | 0.00 | 0.00 | 0.00 | 57 | 1009.5 |
| 20260508003005 | 45 | 13 | 1.0 | 1.0 | 0.00 | 0.00 | 0.00 | 60 | 1009.8 |